Impacts TAF Board INFO
FOR SITUATIONAL AWARENESS. NOT TO BE USED FOR FLIGHT PLANNING PURPOSES.
IDs:

KMCI - Kansas City Intl, MO, US

Issued at 1149 UTC 19 Oct 2017
Updated at 1612 UTC 19 Oct 2017
Potential Impact None Slight Moderate High
Time1553Z 19/17Z 19/18Z 19/19Z 19/20Z 19/21Z 19/22Z 19/23Z 20/00Z 20/01Z 20/02Z 20/03Z 20/04Z 20/05Z>>
Type OBS PRVL PRVL PRVL PRVL PRVL PRVL PRVL PRVL PRVL PRVL PRVL PRVL PRVL
VIS 10 >6 >6 >6 >6 >6 >6 >6 >6 >6 >6 >6 >6 >6
CIG -- -- -- -- -- -- -- -- -- -- -- -- -- --
Cover CLR FEW FEW FEW FEW FEW FEW FEW FEW FEW FEW FEW FEW FEW
FltCat VFR VFR VFR VFR VFR VFR VFR VFR VFR VFR VFR VFR VFR VFR
WX -- -- -- -- -- -- -- -- -- -- -- -- -- --
WDir 230 190 190 190 190 190 190 190 190 190 190 190 190 190
WSpd 9 9 9 9 9 9 9 9 9 9 9 9 9 9
WGst -- -- -- -- -- -- -- -- -- -- -- -- -- --

Raw TAF
KMCI 191149Z 1912/2012 19009KT P6SM FEW250
  FM200800 18009KT P6SM SCT250 WS020/21035KT


Raw METAR
KMCI 191553Z 23009KT 10SM CLR 19/11 A3012 RMK AO2 SLP195 T01940106
KMCI 191453Z 21010KT 10SM CLR 17/11 A3012 RMK AO2 SLP197 T01670106 53011
KMCI 191353Z 20007KT 6SM HZ CLR 14/11 A3011 RMK AO2 SLP192 T01390106

METAR Board
Radar Display
Forecast Discussion

FOR SITUATIONAL AWARENESS. NOT TO BE USED FOR FLIGHT PLANNING PURPOSES.